Time;durP1;ratioP1;P1;durP2;ratioP2;P2;SDS_P1;SDS_P2;PMS_P1;PMS_P2;Temp;Humidity;BMP_temperature;BMP_pressure;BME280_temperature;BME280_humidity;BME280_pressure;Samples;Min_cycle;Max_cycle;Signal;HPM_P1;HPM_P2
2022/02/01 00:00:41;;;;;;;;;;;;;;;21.44;42.50;100654.19;5078318;28;4242;-62
2022/02/01 00:02:51;;;;;;;;;;;;;;;21.46;42.24;100648.53;5064874;28;4260;-62
2022/02/01 00:05:21;;;;;;;;;;;;;;;21.45;42.46;100647.06;5076704;28;4185;-62
2022/02/01 00:10:45;;;;;;;;;;;;;;;21.44;42.61;100652.09;5076298;28;5285;-62
2022/02/01 00:16:11;;;;;;;;;;;;;;;21.44;42.41;100680.88;5076340;28;4178;-62
2022/02/01 00:18:49;;;;;;;;;;;;;;;21.44;42.46;100686.66;5077117;28;4244;-62
2022/02/01 00:35:18;;;;;;;;;;;;;;;21.46;42.62;100706.13;5056122;28;4254;-61
2022/02/01 00:38:17;;;;;;;;;;;;;;;21.42;42.64;100697.34;5056192;28;4251;-61
2022/02/01 00:40:32;;;;;;;;;;;;;;;21.43;42.43;100693.06;5054986;28;4177;-61
2022/02/01 00:42:59;;;;;;;;;;;;;;;21.45;42.33;100690.25;5053198;28;4232;-62
2022/02/01 00:45:25;;;;;;;;;;;;;;;21.44;42.43;100698.16;5056966;28;4070;-61
2022/02/01 00:47:52;;;;;;;;;;;;;;;21.45;42.51;100704.66;5054511;28;4285;-65
2022/02/01 00:50:18;;;;;;;;;;;;;;;21.45;42.35;100707.53;5053442;28;5567;-62
2022/02/01 00:52:44;;;;;;;;;;;;;;;21.45;42.67;100705.41;5051262;28;4242;-61
2022/02/01 00:55:11;;;;;;;;;;;;;;;21.45;42.63;100707.53;5052286;28;4160;-61
2022/02/01 00:57:37;;;;;;;;;;;;;;;21.45;42.70;100713.31;5056202;28;4283;-61
2022/02/01 01:00:04;;;;;;;;;;;;;;;21.44;42.70;100715.47;5056197;28;4246;-61
2022/02/01 01:02:31;;;;;;;;;;;;;;;21.45;42.27;100730.59;5057680;28;4080;-61
2022/02/01 01:04:58;;;;;;;;;;;;;;;21.44;42.62;100714.69;5057814;28;4318;-62
2022/02/01 01:07:24;;;;;;;;;;;;;;;21.45;42.48;100721.94;5054865;28;4257;-61
2022/02/01 01:09:51;;;;;;;;;;;;;;;21.44;42.64;100706.06;5056095;28;4281;-62
2022/02/01 01:12:18;;;;;;;;;;;;;;;21.44;42.65;100703.94;5054813;28;4343;-62
2022/02/01 01:15:04;;;;;;;;;;;;;;;21.46;42.63;100711.91;5057213;28;4087;-61
2022/02/01 01:18:06;;;;;;;;;;;;;;;21.47;42.55;100713.41;5057857;28;4125;-62
2022/02/01 01:45:46;;;;;;;;;;;;;;;21.45;42.42;100693.16;5049831;28;4276;-62
2022/02/01 01:53:43;;;;;;;;;;;;;;;21.44;42.74;100697.41;5052027;28;5340;-62
2022/02/01 01:56:09;;;;;;;;;;;;;;;21.44;42.34;100691.66;5060341;28;4165;-61
2022/02/01 01:58:35;;;;;;;;;;;;;;;21.42;42.47;100688.72;5077146;28;5456;-61
2022/02/01 02:01:11;;;;;;;;;;;;;;;21.43;42.68;100690.19;5074350;28;4239;-62
2022/02/01 02:03:42;;;;;;;;;;;;;;;21.43;42.50;100690.19;5079138;28;4339;-62
2022/02/01 02:06:08;;;;;;;;;;;;;;;21.42;42.61;100682.94;5076459;28;5268;-62
2022/02/01 02:08:34;;;;;;;;;;;;;;;21.44;42.64;100680.13;5075822;28;4172;-62
2022/02/01 02:11:05;;;;;;;;;;;;;;;21.43;42.61;100676.50;5078075;28;4218;-62
2022/02/01 02:16:23;;;;;;;;;;;;;;;21.45;42.57;100693.16;5078129;28;4168;-62
2022/02/01 02:18:49;;;;;;;;;;;;;;;21.45;42.38;100687.38;5079331;28;4211;-61
2022/02/01 02:21:21;;;;;;;;;;;;;;;21.44;42.56;100691.66;5075040;28;4152;-61
2022/02/01 02:23:47;;;;;;;;;;;;;;;21.43;42.44;100684.41;5080534;28;4232;-61
2022/02/01 02:26:14;;;;;;;;;;;;;;;21.42;42.64;100683.69;5080224;28;4268;-61
2022/02/01 02:28:40;;;;;;;;;;;;;;;21.43;42.58;100681.53;5067374;28;4213;-61
2022/02/01 02:31:07;;;;;;;;;;;;;;;21.43;42.64;100687.31;5074866;28;4227;-62
2022/02/01 02:33:33;;;;;;;;;;;;;;;21.41;42.39;100681.47;5080422;28;4220;-62
2022/02/01 02:36:07;;;;;;;;;;;;;;;21.41;42.63;100681.47;5082601;28;4256;-62
2022/02/01 02:38:38;;;;;;;;;;;;;;;21.42;42.36;100677.94;5086638;28;4185;-62
2022/02/01 02:41:29;;;;;;;;;;;;;;;21.44;42.63;100671.47;5082725;28;4212;-61
2022/02/01 02:46:42;;;;;;;;;;;;;;;21.43;42.42;100667.13;5081603;28;4215;-61
2022/02/01 02:49:09;;;;;;;;;;;;;;;21.41;42.51;100676.44;5077748;28;4196;-62
2022/02/01 02:51:36;;;;;;;;;;;;;;;21.41;42.59;100690.09;5079550;28;4379;-62
2022/02/01 02:54:03;;;;;;;;;;;;;;;21.41;42.47;100681.47;5078417;28;4305;-62
2022/02/01 02:56:30;;;;;;;;;;;;;;;21.41;42.47;100684.34;5079325;28;4312;-61
2022/02/01 02:58:56;;;;;;;;;;;;;;;21.41;42.33;100682.19;5076740;28;5566;-62
2022/02/01 03:01:22;;;;;;;;;;;;;;;21.41;42.42;100675.69;5080887;28;4315;-62
2022/02/01 03:03:49;;;;;;;;;;;;;;;21.42;42.63;100682.94;5079011;28;4053;-62
2022/02/01 03:06:15;;;;;;;;;;;;;;;21.42;42.48;100682.94;5081426;28;4194;-61
2022/02/01 03:08:42;;;;;;;;;;;;;;;21.41;42.43;100678.56;5081330;28;4148;-62
2022/02/01 03:11:14;;;;;;;;;;;;;;;21.44;42.39;100674.38;5079881;28;4144;-61
2022/02/01 03:13:49;;;;;;;;;;;;;;;21.42;42.37;100672.16;5080131;28;4326;-62
2022/02/01 03:21:33;;;;;;;;;;;;;;;21.41;42.58;100664.91;5077852;28;5983;-61
2022/02/01 03:23:59;;;;;;;;;;;;;;;21.41;42.64;100658.41;5080423;28;5276;-62
2022/02/01 03:26:25;;;;;;;;;;;;;;;21.40;42.58;100651.16;5082011;28;4257;-62
2022/02/01 03:28:52;;;;;;;;;;;;;;;21.39;42.58;100656.16;5078493;28;5377;-63
2022/02/01 03:31:18;;;;;;;;;;;;;;;21.41;42.68;100658.41;5079714;28;4182;-62
2022/02/01 03:33:45;;;;;;;;;;;;;;;21.41;42.60;100659.16;5080776;28;4053;-62
2022/02/01 03:36:11;;;;;;;;;;;;;;;21.42;42.42;100659.91;5079034;28;4168;-62
2022/02/01 03:38:37;;;;;;;;;;;;;;;21.42;42.55;100662.78;5078096;28;4228;-62
2022/02/01 03:41:04;;;;;;;;;;;;;;;21.42;42.50;100671.44;5079701;28;4303;-62
2022/02/01 03:43:30;;;;;;;;;;;;;;;21.42;42.59;100677.19;5079957;28;5480;-61
2022/02/01 03:45:56;;;;;;;;;;;;;;;21.40;42.71;100679.97;5079637;28;4403;-62
2022/02/01 03:48:23;;;;;;;;;;;;;;;21.40;42.60;100683.59;5080036;28;5282;-61
2022/02/01 03:50:49;;;;;;;;;;;;;;;21.41;42.51;100685.06;5077644;28;4307;-61
2022/02/01 03:53:16;;;;;;;;;;;;;;;21.42;42.42;100685.84;5079047;28;4273;-62
2022/02/01 03:55:42;;;;;;;;;;;;;;;21.42;42.41;100688.72;5079645;28;5320;-62
2022/02/01 03:58:08;;;;;;;;;;;;;;;21.43;42.60;100695.94;5077399;28;4034;-62
2022/02/01 04:00:35;;;;;;;;;;;;;;;21.42;42.41;100697.34;5079028;28;4257;-62
2022/02/01 04:03:04;;;;;;;;;;;;;;;21.43;42.42;100690.19;5077304;28;4176;-62
2022/02/01 04:05:31;;;;;;;;;;;;;;;21.45;42.28;100687.38;5079414;28;3978;-62
2022/02/01 04:07:57;;;;;;;;;;;;;;;21.44;42.43;100683.00;5079686;28;5557;-62
2022/02/01 04:10:24;;;;;;;;;;;;;;;21.45;42.39;100675.84;5079935;28;4175;-62
2022/02/01 04:12:51;;;;;;;;;;;;;;;21.44;42.56;100668.59;5077897;28;4224;-62
2022/02/01 04:15:25;;;;;;;;;;;;;;;21.44;42.53;100660.72;5069577;28;4080;-61
2022/02/01 04:17:52;;;;;;;;;;;;;;;21.43;42.53;100656.34;5079808;28;4135;-61
2022/02/01 04:20:19;;;;;;;;;;;;;;;21.45;42.50;100652.81;5080108;28;4220;-61
2022/02/01 04:22:45;;;;;;;;;;;;;;;21.45;42.62;100652.81;5079238;28;4377;-61
2022/02/01 04:25:11;;;;;;;;;;;;;;;21.44;42.69;100651.31;5075743;28;4169;-62
2022/02/01 04:27:38;;;;;;;;;;;;;;;21.44;42.31;100639.78;5077439;28;4577;-61
2022/02/01 04:30:06;;;;;;;;;;;;;;;21.44;42.46;100631.16;5074008;28;4230;-61
2022/02/01 04:32:42;;;;;;;;;;;;;;;21.44;42.31;100622.50;5078927;28;4229;-63
2022/02/01 04:35:11;;;;;;;;;;;;;;;21.44;42.38;100622.50;5078621;28;4508;-61
2022/02/01 04:37:37;;;;;;;;;;;;;;;21.44;42.67;100622.50;5078999;28;4235;-61
2022/02/01 04:40:05;;;;;;;;;;;;;;;21.42;42.82;100613.81;5078979;28;6360;-61
2022/02/01 04:42:35;;;;;;;;;;;;;;;21.42;42.69;100608.06;5078839;28;4092;-61
2022/02/01 04:45:02;;;;;;;;;;;;;;;21.41;42.54;100601.53;5078210;28;5235;-62
2022/02/01 04:47:32;;;;;;;;;;;;;;;21.42;42.83;100593.66;5078910;28;5268;-61
2022/02/01 04:49:59;;;;;;;;;;;;;;;21.43;42.92;100598.72;5080184;28;4358;-62
2022/02/01 04:52:26;;;;;;;;;;;;;;;21.43;42.73;100595.13;5077679;28;4086;-61
2022/02/01 04:54:52;;;;;;;;;;;;;;;21.44;42.87;100593.72;5079201;28;4167;-63
2022/02/01 04:57:18;;;;;;;;;;;;;;;21.43;42.88;100592.25;5078728;28;4242;-61
2022/02/01 04:59:45;;;;;;;;;;;;;;;21.44;42.99;100594.47;5076841;28;4189;-61
2022/02/01 05:02:11;;;;;;;;;;;;;;;21.43;42.89;100598.72;5077160;28;4222;-62
2022/02/01 05:04:38;;;;;;;;;;;;;;;21.45;43.13;100606.72;5079882;28;5306;-61
2022/02/01 05:07:04;;;;;;;;;;;;;;;21.45;43.01;100600.97;5078965;28;4250;-62
2022/02/01 05:09:32;;;;;;;;;;;;;;;21.46;42.87;100600.31;5079198;28;4069;-61
2022/02/01 05:12:01;;;;;;;;;;;;;;;21.45;42.88;100604.56;5075993;28;4296;-62
2022/02/01 05:14:29;;;;;;;;;;;;;;;21.46;43.06;100613.94;5079724;28;4233;-61
2022/02/01 05:16:57;;;;;;;;;;;;;;;21.46;42.90;100608.19;5080096;28;4248;-62
2022/02/01 05:21:58;;;;;;;;;;;;;;;21.47;42.99;100592.41;5077382;28;5457;-62
2022/02/01 05:24:25;;;;;;;;;;;;;;;21.46;43.15;100599.56;5076833;28;5343;-61
2022/02/01 05:26:54;;;;;;;;;;;;;;;21.46;43.19;100597.44;5078296;28;5241;-61
2022/02/01 05:29:20;;;;;;;;;;;;;;;21.45;42.93;100601.69;5079822;28;4169;-61
2022/02/01 05:31:51;;;;;;;;;;;;;;;21.45;43.07;100595.94;5076919;28;4228;-61
2022/02/01 05:34:19;;;;;;;;;;;;;;;21.47;43.04;100598.16;5079956;28;4128;-61
2022/02/01 05:36:45;;;;;;;;;;;;;;;21.46;43.04;100596.66;5079364;28;4231;-61
2022/02/01 05:39:13;;;;;;;;;;;;;;;21.48;43.09;100611.16;5077323;28;5273;-61
2022/02/01 05:41:39;;;;;;;;;;;;;;;21.47;43.04;100613.28;5078380;28;4257;-61
2022/02/01 05:44:05;;;;;;;;;;;;;;;21.48;42.97;100619.78;5077361;28;5254;-61
2022/02/01 05:46:34;;;;;;;;;;;;;;;21.48;42.97;100617.66;5080952;28;4300;-62
2022/02/01 05:49:01;;;;;;;;;;;;;;;21.49;43.08;100618.41;5084068;28;4228;-62
2022/02/01 05:51:27;;;;;;;;;;;;;;;21.49;42.94;100624.16;5080790;28;5327;-61
2022/02/01 05:53:53;;;;;;;;;;;;;;;21.47;43.16;100616.19;5079446;28;4200;-62
2022/02/01 05:56:21;;;;;;;;;;;;;;;21.49;43.03;100618.41;5082983;28;4257;-61
2022/02/01 05:58:47;;;;;;;;;;;;;;;21.47;43.09;100621.94;5083849;28;4239;-61
2022/02/01 06:01:14;;;;;;;;;;;;;;;21.48;42.93;100628.44;5081613;28;4196;-61
2022/02/01 06:03:40;;;;;;;;;;;;;;;21.47;43.10;100626.97;5081097;28;4168;-61
2022/02/01 06:06:07;;;;;;;;;;;;;;;21.48;42.96;100628.44;5066873;28;5237;-61
2022/02/01 06:08:34;;;;;;;;;;;;;;;21.48;43.06;100628.44;5081777;28;4249;-61
2022/02/01 06:11:00;;;;;;;;;;;;;;;21.48;42.91;100622.69;5081817;28;4291;-61
2022/02/01 06:13:26;;;;;;;;;;;;;;;21.48;43.01;100634.19;5081120;28;4235;-61
2022/02/01 06:15:53;;;;;;;;;;;;;;;21.50;43.03;100625.63;5079756;28;4191;-62
2022/02/01 06:18:19;;;;;;;;;;;;;;;21.50;42.82;100642.91;5081317;28;4082;-61
2022/02/01 06:20:46;;;;;;;;;;;;;;;21.50;43.06;100642.91;5083348;28;4202;-61
2022/02/01 06:23:15;;;;;;;;;;;;;;;21.51;43.13;100638.66;5082309;28;4117;-61
2022/02/01 06:25:49;;;;;;;;;;;;;;;21.51;42.88;100647.28;5080981;28;5379;-61
2022/02/01 06:28:16;;;;;;;;;;;;;;;21.50;43.24;100648.69;5080333;28;4268;-61
2022/02/01 06:30:42;;;;;;;;;;;;;;;21.50;42.99;100660.22;5083680;28;4054;-61
2022/02/01 06:33:08;;;;;;;;;;;;;;;21.50;43.07;100658.06;5080928;28;6385;-61
2022/02/01 06:35:35;;;;;;;;;;;;;;;21.49;43.07;100659.47;5081609;28;4303;-62
2022/02/01 06:38:06;;;;;;;;;;;;;;;21.32;43.95;100658.06;5066471;28;4223;-62
2022/02/01 06:40:33;;;;;;;;;;;;;;;21.31;44.18;100662.34;5086773;28;4048;-64
2022/02/01 06:43:00;;;;;;;;;;;;;;;21.34;43.89;100661.00;5078789;28;4188;-64
2022/02/01 06:45:26;;;;;;;;;;;;;;;21.31;43.71;100653.72;5084748;28;4134;-63
2022/02/01 06:47:53;;;;;;;;;;;;;;;21.32;43.60;100651.56;5088613;28;5198;-65
2022/02/01 06:50:21;;;;;;;;;;;;;;;21.30;43.32;100655.13;5087440;28;4217;-64
2022/02/01 06:52:47;;;;;;;;;;;;;;;21.30;43.28;100655.13;5081775;28;4282;-64
2022/02/01 06:55:21;;;;;;;;;;;;;;;21.29;43.07;100645.00;5080188;28;4167;-64
2022/02/01 06:57:47;;;;;;;;;;;;;;;21.28;42.84;100642.75;5079822;28;4244;-65
2022/02/01 07:00:13;;;;;;;;;;;;;;;21.27;43.13;100639.13;5081505;28;4176;-65
2022/02/01 07:02:40;;;;;;;;;;;;;;;21.27;43.06;100647.78;5081505;28;4069;-63
2022/02/01 07:05:07;;;;;;;;;;;;;;;21.26;42.79;100636.94;5080082;28;5312;-64
2022/02/01 07:07:33;;;;;;;;;;;;;;;21.28;42.93;100639.88;5084194;28;5413;-64
2022/02/01 07:09:59;;;;;;;;;;;;;;;21.27;42.97;100633.38;5086134;28;4241;-64
2022/02/01 07:12:26;;;;;;;;;;;;;;;21.27;43.05;100629.78;5081378;28;4203;-64
2022/02/01 07:14:52;;;;;;;;;;;;;;;21.27;42.85;100624.75;5080949;28;5461;-66
2022/02/01 07:17:19;;;;;;;;;;;;;;;21.25;43.13;100633.31;5082065;28;4045;-68
2022/02/01 07:19:46;;;;;;;;;;;;;;;21.28;43.05;100628.34;5079493;28;4143;-65
2022/02/01 07:22:13;;;;;;;;;;;;;;;21.25;43.03;100633.31;5084469;28;4156;-65
2022/02/01 07:24:53;;;;;;;;;;;;;;;21.25;42.85;100624.66;5087752;28;4163;-65
2022/02/01 07:27:37;;;;;;;;;;;;;;;21.23;43.00;100620.97;5084349;28;4170;-65
2022/02/01 07:30:07;;;;;;;;;;;;;;;21.23;42.99;100644.75;5065291;28;5623;-65
2022/02/01 07:32:34;;;;;;;;;;;;;;;21.20;43.02;100625.19;5087509;28;4231;-65
2022/02/01 07:35:00;;;;;;;;;;;;;;;21.18;43.03;100625.84;5086588;28;4128;-65
2022/02/01 07:37:33;;;;;;;;;;;;;;;21.17;42.98;100618.59;5063668;28;4161;-65
2022/02/01 07:40:01;;;;;;;;;;;;;;;21.13;42.99;100630.69;5085038;28;4201;-65
2022/02/01 07:42:28;;;;;;;;;;;;;;;20.95;42.47;100611.97;5065476;28;4266;-68
2022/02/01 07:44:59;;;;;;;;;;;;;;;21.00;42.72;100622.22;5074403;28;5497;-70
2022/02/01 07:47:26;;;;;;;;;;;;;;;20.98;43.38;100625.03;5080991;28;4175;-71
2022/02/01 07:49:52;;;;;;;;;;;;;;;21.05;43.60;100629.63;5085873;28;4154;-70
2022/02/01 07:52:18;;;;;;;;;;;;;;;21.09;44.00;100624.03;5078180;28;4069;-69
2022/02/01 07:54:45;;;;;;;;;;;;;;;21.17;43.45;100617.88;5080725;28;4239;-68
2022/02/01 07:57:11;;;;;;;;;;;;;;;21.27;45.88;100627.63;5082762;28;4183;-69
2022/02/01 07:59:38;;;;;;;;;;;;;;;21.54;46.26;100638.06;5085019;28;5135;-71
2022/02/01 08:02:04;;;;;;;;;;;;;;;21.73;45.82;100625.06;5079230;28;4292;-67
2022/02/01 08:04:34;;;;;;;;;;;;;;;21.80;44.92;100628.19;5086557;28;5132;-68
2022/02/01 08:07:01;;;;;;;;;;;;;;;21.88;44.67;100632.09;5085412;28;4061;-66
2022/02/01 08:09:37;;;;;;;;;;;;;;;21.79;43.51;100626.72;5085428;28;4214;-67
2022/02/01 08:12:12;;;;;;;;;;;;;;;21.85;43.49;100624.03;5082740;28;4439;-69
2022/02/01 08:15:43;;;;;;;;;;;;;;;21.90;43.37;100628.56;5085748;28;4231;-67
2022/02/01 08:18:24;;;;;;;;;;;;;;;21.93;43.24;100636.59;5086126;28;4215;-67
2022/02/01 08:20:28;;;;;;;;;;;;;;;21.98;42.91;100637.50;5077267;28;4064;-68
2022/02/01 08:25:24;;;;;;;;;;;;;;;21.95;42.80;100618.66;5088451;28;4246;-65
2022/02/01 08:27:50;;;;;;;;;;;;;;;22.06;42.57;100629.13;5086470;28;4140;-64
2022/02/01 08:30:16;;;;;;;;;;;;;;;21.95;42.20;100621.53;5077179;28;5401;-65
2022/02/01 08:32:43;;;;;;;;;;;;;;;21.98;42.36;100620.19;5064152;28;4265;-65
2022/02/01 08:35:09;;;;;;;;;;;;;;;21.99;42.19;100626.69;5085836;28;4065;-65
2022/02/01 08:37:36;;;;;;;;;;;;;;;21.96;42.31;100614.34;5086232;28;4396;-66
2022/02/01 08:40:02;;;;;;;;;;;;;;;22.02;42.50;100631.88;5085329;28;5309;-68
2022/02/01 08:42:30;;;;;;;;;;;;;;;22.07;42.67;100621.22;5082504;28;4245;-66
2022/02/01 08:44:57;;;;;;;;;;;;;;;22.07;42.70;100613.31;5079640;28;5441;-68
2022/02/01 08:47:23;;;;;;;;;;;;;;;22.10;42.47;100614.84;5084984;28;4252;-69
2022/02/01 08:49:55;;;;;;;;;;;;;;;22.13;42.23;100612.78;5084452;28;4227;-67
2022/02/01 08:52:29;;;;;;;;;;;;;;;22.13;42.30;100596.22;5081246;28;4970;-70
2022/02/01 08:54:56;;;;;;;;;;;;;;;21.81;42.93;100583.56;5083041;28;4443;-68
2022/02/01 08:57:24;;;;;;;;;;;;;;;22.03;42.64;100569.19;5085632;28;4197;-64
2022/02/01 08:59:56;;;;;;;;;;;;;;;22.03;42.74;100569.91;5084190;28;4095;-65
2022/02/01 09:02:23;;;;;;;;;;;;;;;21.98;42.46;100568.28;5075675;28;4170;-65
2022/02/01 09:04:50;;;;;;;;;;;;;;;21.96;42.20;100559.56;5071597;28;4056;-67
2022/02/01 09:07:16;;;;;;;;;;;;;;;21.99;42.44;100558.25;5072405;28;4466;-66
2022/02/01 09:09:42;;;;;;;;;;;;;;;22.05;41.98;100544.03;5063206;28;4063;-67
2022/02/01 09:12:09;;;;;;;;;;;;;;;21.98;42.01;100545.22;5080318;28;4165;-68
2022/02/01 09:14:41;;;;;;;;;;;;;;;21.90;41.96;100545.69;5064579;28;4122;-71
2022/02/01 09:17:08;;;;;;;;;;;;;;;21.95;42.07;100540.81;5066772;28;4241;-72
2022/02/01 09:19:34;;;;;;;;;;;;;;;21.93;42.53;100538.59;5064901;28;4156;-67
2022/02/01 09:22:02;;;;;;;;;;;;;;;21.99;42.27;100535.19;5058877;28;4341;-71
2022/02/01 09:24:29;;;;;;;;;;;;;;;21.97;42.25;100538.00;5081970;28;4166;-65
2022/02/01 09:26:56;;;;;;;;;;;;;;;21.98;42.31;100525.06;5081406;28;4036;-68
2022/02/01 09:29:22;;;;;;;;;;;;;;;21.98;42.27;100522.16;5082633;28;5525;-64
2022/02/01 09:31:49;;;;;;;;;;;;;;;22.05;42.15;100526.72;5079809;28;4232;-69
2022/02/01 09:34:15;;;;;;;;;;;;;;;21.97;42.14;100520.69;5077264;28;4357;-68
2022/02/01 09:36:46;;;;;;;;;;;;;;;22.02;42.05;100516.53;5077994;28;4245;-68
2022/02/01 09:39:13;;;;;;;;;;;;;;;21.98;42.41;100510.63;5077970;28;4176;-66
2022/02/01 09:41:39;;;;;;;;;;;;;;;21.97;42.19;100509.16;5076915;28;4162;-67
2022/02/01 09:44:06;;;;;;;;;;;;;;;21.92;42.35;100484.47;5080014;28;4233;-67
2022/02/01 09:46:34;;;;;;;;;;;;;;;22.06;42.16;100498.63;5079185;28;4110;-69
2022/02/01 09:49:01;;;;;;;;;;;;;;;22.09;41.85;100483.63;5081270;28;4217;-72
2022/02/01 09:51:31;;;;;;;;;;;;;;;22.14;41.96;100476.56;5080772;28;4067;-71
2022/02/01 09:54:17;;;;;;;;;;;;;;;21.99;42.29;100473.88;5067964;28;5250;-71
2022/02/01 09:56:44;;;;;;;;;;;;;;;22.06;41.79;100470.56;5081755;28;4282;-70
2022/02/01 09:59:17;;;;;;;;;;;;;;;22.04;42.24;100458.22;5079204;28;4226;-66
2022/02/01 10:01:44;;;;;;;;;;;;;;;22.06;41.89;100459.03;5073361;28;4251;-68
2022/02/01 10:04:11;;;;;;;;;;;;;;;22.02;41.89;100458.88;5077537;28;4095;-65
2022/02/01 10:06:41;;;;;;;;;;;;;;;22.02;42.01;100453.13;5078421;28;4325;-65
2022/02/01 10:09:27;;;;;;;;;;;;;;;21.96;41.82;100442.09;5077554;28;4198;-66
2022/02/01 10:11:53;;;;;;;;;;;;;;;21.93;42.26;100434.06;5078817;28;4234;-64
2022/02/01 10:14:24;;;;;;;;;;;;;;;22.03;41.94;100436.56;5082068;28;4239;-71
2022/02/01 10:16:56;;;;;;;;;;;;;;;21.96;42.34;100444.25;5080412;28;4219;-69
2022/02/01 10:19:22;;;;;;;;;;;;;;;21.94;41.72;100441.31;5077424;28;4668;-68
2022/02/01 10:21:58;;;;;;;;;;;;;;;22.05;41.67;100443.13;5075663;28;4318;-64
2022/02/01 10:24:32;;;;;;;;;;;;;;;22.07;41.63;100428.78;5077447;28;5110;-65
2022/02/01 10:27:05;;;;;;;;;;;;;;;22.04;41.69;100433.00;5080123;28;4161;-64
2022/02/01 10:29:33;;;;;;;;;;;;;;;22.00;41.63;100420.59;5081274;28;4073;-68
2022/02/01 10:32:01;;;;;;;;;;;;;;;21.97;41.70;100411.16;5074585;28;4217;-66
2022/02/01 10:36:54;;;;;;;;;;;;;;;22.03;42.30;100402.69;5082138;28;4082;-68
2022/02/01 10:39:21;;;;;;;;;;;;;;;22.14;42.04;100401.59;5084764;28;4265;-69
2022/02/01 10:41:51;;;;;;;;;;;;;;;22.25;41.79;100390.44;5079818;28;4231;-69
2022/02/01 10:44:18;;;;;;;;;;;;;;;22.16;41.86;100395.91;5072452;28;4170;-70
2022/02/01 10:46:52;;;;;;;;;;;;;;;22.19;41.62;100393.81;5082098;28;4082;-69
2022/02/01 10:49:28;;;;;;;;;;;;;;;22.25;41.70;100382.50;5074674;28;4156;-65
2022/02/01 10:51:59;;;;;;;;;;;;;;;22.20;41.69;100369.34;5079341;28;5131;-67
2022/02/01 10:54:42;;;;;;;;;;;;;;;22.16;41.47;100361.28;5076560;28;5763;-66
2022/02/01 10:57:10;;;;;;;;;;;;;;;22.05;41.54;100355.88;5082756;28;4335;-68
2022/02/01 10:59:37;;;;;;;;;;;;;;;22.04;41.75;100346.50;5080635;28;4689;-67
2022/02/01 11:02:03;;;;;;;;;;;;;;;22.02;41.56;100332.03;5078770;28;4279;-72
2022/02/01 11:04:30;;;;;;;;;;;;;;;21.89;41.76;100330.16;5072926;28;4175;-72
2022/02/01 11:06:57;;;;;;;;;;;;;;;21.95;41.77;100321.72;5080716;28;4206;-69
2022/02/01 11:09:24;;;;;;;;;;;;;;;22.02;41.55;100322.66;5085700;28;3980;-67
2022/02/01 11:11:54;;;;;;;;;;;;;;;21.93;42.06;100313.75;5055842;28;4145;-66
2022/02/01 11:14:21;;;;;;;;;;;;;;;22.12;41.75;100306.38;5080101;28;4195;-65
2022/02/01 11:16:47;;;;;;;;;;;;;;;22.05;41.61;100301.84;5057433;28;4190;-68
2022/02/01 11:19:31;;;;;;;;;;;;;;;21.98;41.64;100291.53;5072201;28;4201;-66
2022/02/01 11:21:58;;;;;;;;;;;;;;;22.09;41.61;100278.91;5079533;28;4009;-67
2022/02/01 11:24:37;;;;;;;;;;;;;;;22.16;41.76;100271.91;5067038;28;4223;-64
2022/02/01 11:27:13;;;;;;;;;;;;;;;22.23;41.70;100261.31;5083694;28;4307;-71
2022/02/01 11:30:01;;;;;;;;;;;;;;;22.22;41.52;100256.22;5060834;28;5185;-68
2022/02/01 11:32:33;;;;;;;;;;;;;;;22.32;41.34;100253.63;5066666;28;5363;-70
2022/02/01 11:35:09;;;;;;;;;;;;;;;22.34;41.19;100245.06;5069923;28;4222;-68
2022/02/01 11:38:05;;;;;;;;;;;;;;;22.27;42.04;100235.47;5072208;28;4200;-68
2022/02/01 11:40:41;;;;;;;;;;;;;;;22.24;42.52;100236.84;5081165;28;4253;-63
2022/02/01 11:43:25;;;;;;;;;;;;;;;21.97;42.98;100220.91;5078829;28;4114;-65
2022/02/01 11:45:52;;;;;;;;;;;;;;;21.94;43.43;100213.56;5060026;28;4229;-65
2022/02/01 11:48:19;;;;;;;;;;;;;;;22.01;43.33;100212.34;5053289;28;4141;-65
2022/02/01 11:50:47;;;;;;;;;;;;;;;21.89;43.09;100209.84;5049313;28;5541;-65
2022/02/01 11:53:37;;;;;;;;;;;;;;;21.69;41.80;100204.22;5056556;28;4164;-66
2022/02/01 11:56:03;;;;;;;;;;;;;;;21.39;41.14;100180.19;5040408;28;4152;-64
2022/02/01 11:58:37;;;;;;;;;;;;;;;19.91;38.68;100177.31;5055112;28;4277;-61
2022/02/01 12:01:05;;;;;;;;;;;;;;;20.15;39.42;100183.19;5059079;28;3935;-67
2022/02/01 12:03:35;;;;;;;;;;;;;;;20.89;39.21;100167.13;5058295;28;4253;-66
2022/02/01 12:06:07;;;;;;;;;;;;;;;21.44;39.24;100168.16;5058552;28;5339;-71
2022/02/01 12:08:34;;;;;;;;;;;;;;;21.68;39.76;100159.50;5061833;28;4178;-68
2022/02/01 12:11:01;;;;;;;;;;;;;;;21.83;40.00;100148.41;5060690;28;4183;-68
2022/02/01 12:13:29;;;;;;;;;;;;;;;21.90;40.47;100127.00;5061781;28;4039;-65
2022/02/01 12:15:57;;;;;;;;;;;;;;;21.92;40.44;100127.03;5075316;28;5329;-65
2022/02/01 12:18:27;;;;;;;;;;;;;;;21.93;40.76;100132.13;5080228;28;5272;-64
2022/02/01 12:21:12;;;;;;;;;;;;;;;21.89;40.89;100117.59;5076478;28;4207;-65
2022/02/01 12:23:43;;;;;;;;;;;;;;;21.98;40.40;100095.50;5078956;28;4283;-64
2022/02/01 12:26:16;;;;;;;;;;;;;;;22.02;40.81;100095.63;5081551;28;4037;-63
2022/02/01 12:28:43;;;;;;;;;;;;;;;22.05;41.03;100084.88;5078070;28;4271;-63
2022/02/01 12:31:10;;;;;;;;;;;;;;;21.98;41.57;100075.34;5078954;28;4085;-62
2022/02/01 12:33:39;;;;;;;;;;;;;;;22.02;41.63;100060.31;5076499;28;4161;-64
2022/02/01 12:36:06;;;;;;;;;;;;;;;22.03;41.43;100056.00;5079428;28;4181;-60
2022/02/01 12:38:32;;;;;;;;;;;;;;;22.04;41.18;100032.28;5077513;28;4362;-62
2022/02/01 12:41:12;;;;;;;;;;;;;;;22.02;41.44;100026.44;5080620;28;4163;-62
2022/02/01 12:46:49;;;;;;;;;;;;;;;22.04;41.56;99991.19;5076252;28;4324;-63
2022/02/01 12:49:38;;;;;;;;;;;;;;;22.03;41.84;99970.25;5079844;28;4192;-64
2022/02/01 12:52:05;;;;;;;;;;;;;;;22.05;41.93;99955.88;5075014;28;4226;-63
2022/02/01 12:54:38;;;;;;;;;;;;;;;22.05;41.57;99944.34;5074807;28;5304;-63
2022/02/01 12:57:05;;;;;;;;;;;;;;;22.06;41.65;99928.53;5080204;28;5307;-62
2022/02/01 12:59:48;;;;;;;;;;;;;;;22.07;41.74;99924.22;5073977;28;4225;-61
2022/02/01 13:02:15;;;;;;;;;;;;;;;22.02;41.72;99911.13;5076009;28;4177;-59
2022/02/01 13:04:41;;;;;;;;;;;;;;;22.00;41.49;99878.66;5079358;28;5376;-61
2022/02/01 13:07:21;;;;;;;;;;;;;;;22.03;41.26;99871.50;5078861;28;4304;-59
2022/02/01 13:15:28;;;;;;;;;;;;;;;21.63;42.34;99849.66;5077828;28;4043;-63
2022/02/01 13:18:16;;;;;;;;;;;;;;;21.45;43.17;99835.53;5066536;28;4287;-66
2022/02/01 13:21:06;;;;;;;;;;;;;;;21.64;42.43;99816.56;5077833;28;4273;-66
2022/02/01 13:23:36;;;;;;;;;;;;;;;21.79;42.39;99819.78;5073942;28;4083;-66
2022/02/01 13:26:09;;;;;;;;;;;;;;;21.82;42.05;99798.25;5074249;28;4229;-66
2022/02/01 13:29:00;;;;;;;;;;;;;;;21.88;41.99;99784.72;5082783;28;4794;-64
2022/02/01 13:31:29;;;;;;;;;;;;;;;21.97;42.34;99777.00;5077166;28;4178;-64
2022/02/01 13:34:00;;;;;;;;;;;;;;;22.20;41.56;99774.59;5066064;28;4244;-66
2022/02/01 13:36:26;;;;;;;;;;;;;;;22.39;42.06;99767.81;5075053;28;4244;-66
2022/02/01 13:38:54;;;;;;;;;;;;;;;22.40;41.65;99763.50;5078016;28;4520;-66
2022/02/01 13:41:20;;;;;;;;;;;;;;;22.50;41.80;99772.38;5078600;28;4232;-64
2022/02/01 13:43:47;;;;;;;;;;;;;;;22.53;41.36;99753.69;5081095;28;4249;-64
2022/02/01 13:46:21;;;;;;;;;;;;;;;22.54;41.21;99746.50;5078836;28;4270;-64
2022/02/01 13:48:57;;;;;;;;;;;;;;;22.52;41.21;99737.06;5077689;28;4280;-61
2022/02/01 13:51:23;;;;;;;;;;;;;;;22.53;41.03;99730.59;5075273;28;4143;-63
2022/02/01 13:53:59;;;;;;;;;;;;;;;22.48;41.03;99729.06;5076918;28;4111;-61
2022/02/01 13:56:27;;;;;;;;;;;;;;;22.48;41.21;99725.44;5074731;28;4262;-61
2022/02/01 13:58:56;;;;;;;;;;;;;;;22.44;40.88;99705.19;5079376;28;4379;-62
2022/02/01 14:01:22;;;;;;;;;;;;;;;22.43;41.35;99701.56;5074700;28;4270;-63
2022/02/01 14:04:10;;;;;;;;;;;;;;;22.43;40.72;99698.69;5075056;28;4227;-63
2022/02/01 14:06:51;;;;;;;;;;;;;;;22.47;41.01;99698.75;5072290;28;4145;-61
2022/02/01 14:09:38;;;;;;;;;;;;;;;22.44;41.15;99684.97;5061279;28;4105;-60
2022/02/01 14:12:35;;;;;;;;;;;;;;;22.42;40.78;99679.91;5056833;28;4183;-61
2022/02/01 14:28:57;;;;;;;;;;;;;;;22.53;41.22;99626.75;5075674;28;3962;-62
2022/02/01 14:34:21;;;;;;;;;;;;;;;22.61;40.94;99616.78;5082184;28;4177;-62